Time;durP1;ratioP1;P1;durP2;ratioP2;P2;SDS_P1;SDS_P2;PMS_P1;PMS_P2;Temp;Humidity;BMP_temperature;BMP_pressure;BME280_temperature;BME280_humidity;BME280_pressure;Samples;Min_cycle;Max_cycle;Signal;HPM_P1;HPM_P2
2023/09/01 00:01:00;;;;;;;;;;;;;;;13.50;46.67;100440.41;4885280;28;98449;-69
2023/09/01 00:03:27;;;;;;;;;;;;;;;13.48;46.49;100447.22;4886023;28;98158;-69
2023/09/01 00:05:53;;;;;;;;;;;;;;;13.44;46.89;100446.16;4885593;28;98453;-71
2023/09/01 00:08:19;;;;;;;;;;;;;;;13.43;46.72;100455.38;4865173;28;99742;-71
2023/09/01 00:10:46;;;;;;;;;;;;;;;13.43;46.44;100452.66;4889431;28;98588;-71
2023/09/01 00:13:12;;;;;;;;;;;;;;;13.45;46.52;100455.91;4869549;28;98400;-71
2023/09/01 00:15:39;;;;;;;;;;;;;;;13.47;46.49;100453.72;4883754;28;98106;-70
2023/09/01 00:18:06;;;;;;;;;;;;;;;13.48;46.40;100450.72;4883078;28;98192;-71
2023/09/01 00:20:36;;;;;;;;;;;;;;;13.47;46.89;100454.50;4879739;28;98124;-69
2023/09/01 00:23:04;;;;;;;;;;;;;;;13.46;46.65;100452.91;4864863;28;98933;-69
2023/09/01 00:25:31;;;;;;;;;;;;;;;13.45;46.79;100448.59;4869694;28;98080;-71
2023/09/01 00:27:57;;;;;;;;;;;;;;;13.44;46.54;100446.16;4864956;28;98236;-71
2023/09/01 00:30:26;;;;;;;;;;;;;;;13.44;46.76;100457.81;4886178;28;98225;-69
2023/09/01 00:32:53;;;;;;;;;;;;;;;13.45;46.61;100455.91;4866043;28;100008;-71
2023/09/01 00:35:20;;;;;;;;;;;;;;;13.46;46.49;100461.03;4870647;28;98165;-71
2023/09/01 00:37:46;;;;;;;;;;;;;;;13.48;46.84;100456.16;4867711;28;98717;-69
2023/09/01 00:40:12;;;;;;;;;;;;;;;13.48;46.42;100460.75;4867095;28;111689;-69
2023/09/01 00:42:39;;;;;;;;;;;;;;;13.49;46.69;100456.94;4887865;28;98024;-71
2023/09/01 00:45:06;;;;;;;;;;;;;;;13.49;46.50;100452.34;4882706;28;98517;-71
2023/09/01 00:47:33;;;;;;;;;;;;;;;13.48;46.81;100458.06;4883810;28;98422;-69
2023/09/01 00:50:07;;;;;;;;;;;;;;;13.48;46.57;100458.06;4886317;28;98196;-69
2023/09/01 00:52:35;;;;;;;;;;;;;;;13.49;46.85;100462.38;4887620;28;98352;-69
2023/09/01 00:55:01;;;;;;;;;;;;;;;13.49;46.48;100459.66;4884729;28;98572;-69
2023/09/01 00:57:28;;;;;;;;;;;;;;;13.50;46.82;100461.25;4851386;28;99335;-71
2023/09/01 00:59:54;;;;;;;;;;;;;;;13.50;46.88;100458.56;4886658;28;97956;-69
2023/09/01 01:02:20;;;;;;;;;;;;;;;13.49;46.65;100456.94;4884230;28;98125;-70
2023/09/01 01:04:47;;;;;;;;;;;;;;;13.48;46.49;100450.72;4887109;28;98436;-69
2023/09/01 01:07:13;;;;;;;;;;;;;;;13.47;46.41;100454.50;4886114;28;99434;-69
2023/09/01 01:10:12;;;;;;;;;;;;;;;13.46;46.71;100452.91;4872889;28;98343;-71
2023/09/01 01:13:10;;;;;;;;;;;;;;;13.45;46.87;100451.28;4889255;28;98281;-69
2023/09/01 01:15:37;;;;;;;;;;;;;;;13.42;46.96;100453.75;4866950;28;98040;-71
2023/09/01 01:18:10;;;;;;;;;;;;;;;13.37;46.55;100449.22;4872677;28;98656;-71
2023/09/01 01:20:38;;;;;;;;;;;;;;;13.36;46.91;100447.59;4872726;28;98516;-69
2023/09/01 01:23:17;;;;;;;;;;;;;;;13.33;46.62;100452.78;4880399;28;98175;-71
2023/09/01 01:25:47;;;;;;;;;;;;;;;13.28;46.98;100448.19;4870307;28;98413;-71
2023/09/01 01:28:13;;;;;;;;;;;;;;;13.24;46.94;100455.28;4862095;28;99441;-71
2023/09/01 01:30:40;;;;;;;;;;;;;;;13.19;46.92;100439.06;4886289;28;98846;-69
2023/09/01 01:33:11;;;;;;;;;;;;;;;13.14;46.54;100434.50;4884866;28;98291;-71
2023/09/01 01:36:00;;;;;;;;;;;;;;;13.11;46.79;100440.50;4866485;28;98137;-69
2023/09/01 01:38:28;;;;;;;;;;;;;;;13.08;46.69;100434.84;4866546;28;98520;-71
2023/09/01 01:41:10;;;;;;;;;;;;;;;13.06;47.01;100440.53;4883674;28;98098;-69
2023/09/01 01:43:38;;;;;;;;;;;;;;;13.03;46.96;100443.81;4885636;28;99430;-71
2023/09/01 01:46:04;;;;;;;;;;;;;;;13.01;46.79;100438.69;4855698;28;98181;-71
2023/09/01 01:48:34;;;;;;;;;;;;;;;13.00;46.84;100439.75;4879086;28;98456;-69
2023/09/01 01:51:00;;;;;;;;;;;;;;;12.98;46.93;100439.25;4868903;28;98281;-71
2023/09/01 01:53:27;;;;;;;;;;;;;;;12.96;46.92;100436.00;4883898;28;98954;-70
2023/09/01 01:55:53;;;;;;;;;;;;;;;12.93;47.10;100435.78;4866664;28;98434;-69
2023/09/01 01:58:20;;;;;;;;;;;;;;;12.90;46.82;100436.34;4867509;28;98714;-69
2023/09/01 02:00:47;;;;;;;;;;;;;;;12.87;47.09;100437.72;4863291;28;98269;-69
2023/09/01 02:03:13;;;;;;;;;;;;;;;12.84;47.14;100440.97;4864745;28;98335;-69
2023/09/01 02:05:40;;;;;;;;;;;;;;;12.81;46.80;100440.75;4867395;28;99405;-69
2023/09/01 02:08:06;;;;;;;;;;;;;;;12.78;47.03;100440.22;4882914;28;98361;-69
2023/09/01 02:10:33;;;;;;;;;;;;;;;12.76;46.69;100438.88;4872540;28;98234;-71
2023/09/01 02:13:00;;;;;;;;;;;;;;;12.75;46.94;100439.97;4868092;28;98490;-71
2023/09/01 02:15:26;;;;;;;;;;;;;;;12.73;46.94;100442.16;4885806;28;100066;-69
2023/09/01 02:17:53;;;;;;;;;;;;;;;12.71;47.00;100445.16;4883309;28;98854;-71
2023/09/01 02:20:19;;;;;;;;;;;;;;;12.71;46.78;100450.56;4847510;28;98083;-71
2023/09/01 02:22:45;;;;;;;;;;;;;;;12.69;46.82;100449.22;4885943;28;98214;-69
2023/09/01 02:25:13;;;;;;;;;;;;;;;12.64;47.16;100451.97;4884471;28;99432;-71
2023/09/01 02:27:40;;;;;;;;;;;;;;;12.62;46.89;100451.44;4852334;28;98169;-69
2023/09/01 02:30:08;;;;;;;;;;;;;;;12.61;46.88;100447.91;4887469;28;98926;-71
2023/09/01 02:32:35;;;;;;;;;;;;;;;12.61;47.03;100460.63;4870544;28;98805;-71
2023/09/01 02:35:05;;;;;;;;;;;;;;;12.57;47.02;100456.88;4883796;28;98181;-71
2023/09/01 02:37:35;;;;;;;;;;;;;;;12.57;46.95;100464.97;4870288;28;98163;-69
2023/09/01 02:40:10;;;;;;;;;;;;;;;12.56;46.83;100457.97;4846291;28;100257;-69
2023/09/01 02:42:38;;;;;;;;;;;;;;;12.52;47.00;100466.63;4871093;28;102056;-69
2023/09/01 02:45:05;;;;;;;;;;;;;;;12.50;46.82;100471.53;4880991;28;98953;-69
2023/09/01 02:47:31;;;;;;;;;;;;;;;12.50;47.03;100478.84;4867410;28;99058;-69
2023/09/01 02:49:58;;;;;;;;;;;;;;;12.51;47.09;100483.16;4867892;28;98144;-69
2023/09/01 02:52:24;;;;;;;;;;;;;;;12.50;46.92;100478.84;4866080;28;98530;-71
2023/09/01 02:54:50;;;;;;;;;;;;;;;12.49;46.93;100477.19;4848609;28;98499;-71
2023/09/01 02:57:16;;;;;;;;;;;;;;;12.47;46.94;100473.97;4866556;28;98297;-71
2023/09/01 02:59:43;;;;;;;;;;;;;;;12.42;46.92;100469.41;4880121;28;103158;-69
2023/09/01 03:02:09;;;;;;;;;;;;;;;12.38;46.95;100465.66;4865772;28;99520;-71
2023/09/01 03:04:37;;;;;;;;;;;;;;;12.32;46.95;100474.06;4880923;28;98529;-70
2023/09/01 03:07:04;;;;;;;;;;;;;;;12.28;46.82;100463.00;4881964;28;99073;-72
2023/09/01 03:09:30;;;;;;;;;;;;;;;12.25;47.20;100472.47;4862380;28;99217;-71
2023/09/01 03:11:57;;;;;;;;;;;;;;;12.23;47.01;100471.94;4886353;28;98144;-69
2023/09/01 03:14:24;;;;;;;;;;;;;;;12.22;47.06;100470.34;4868178;28;98039;-71
2023/09/01 03:16:51;;;;;;;;;;;;;;;12.22;47.14;100464.94;4865158;28;99826;-69
2023/09/01 03:19:17;;;;;;;;;;;;;;;12.24;47.16;100467.34;4884021;28;98144;-69
2023/09/01 03:21:43;;;;;;;;;;;;;;;12.23;47.01;100463.84;4881669;28;98180;-69
2023/09/01 03:24:10;;;;;;;;;;;;;;;12.24;47.12;100464.63;4861923;28;99568;-69
2023/09/01 03:26:36;;;;;;;;;;;;;;;12.24;47.22;100461.94;4847641;28;99970;-69
2023/09/01 03:29:03;;;;;;;;;;;;;;;12.25;47.00;100466.25;4901198;28;103429;-71
2023/09/01 03:31:31;;;;;;;;;;;;;;;12.25;47.07;100464.34;4876832;28;98194;-71
2023/09/01 03:33:57;;;;;;;;;;;;;;;12.25;46.86;100467.06;4878561;28;102574;-70
2023/09/01 03:36:24;;;;;;;;;;;;;;;12.25;46.88;100466.25;4849977;28;98252;-70
2023/09/01 03:38:53;;;;;;;;;;;;;;;12.26;46.92;100467.84;4877991;28;98052;-69
2023/09/01 03:41:20;;;;;;;;;;;;;;;12.24;46.92;100465.44;4866627;28;98945;-71
2023/09/01 03:43:47;;;;;;;;;;;;;;;12.23;47.06;100471.94;4854634;28;97988;-71
2023/09/01 03:46:13;;;;;;;;;;;;;;;12.23;47.01;100471.94;4862176;28;99353;-70
2023/09/01 03:48:39;;;;;;;;;;;;;;;12.21;46.82;100470.59;4871003;28;98493;-71
2023/09/01 03:51:14;;;;;;;;;;;;;;;12.19;46.81;100473.59;4864993;28;99950;-71
2023/09/01 03:53:40;;;;;;;;;;;;;;;12.20;47.07;100471.69;4878607;28;98265;-70
2023/09/01 03:56:13;;;;;;;;;;;;;;;12.20;47.24;100474.38;4879959;28;98079;-69
2023/09/01 03:58:40;;;;;;;;;;;;;;;12.19;47.06;100468.19;4884492;28;99216;-69
2023/09/01 04:01:08;;;;;;;;;;;;;;;12.20;46.89;100471.69;4889682;28;98124;-71
2023/09/01 04:03:38;;;;;;;;;;;;;;;12.17;47.08;100481.16;4892745;28;98845;-69
2023/09/01 04:06:05;;;;;;;;;;;;;;;12.17;47.02;100478.44;4886045;28;98526;-70
2023/09/01 04:08:32;;;;;;;;;;;;;;;12.15;46.97;100488.72;4897788;28;98247;-71
2023/09/01 04:10:58;;;;;;;;;;;;;;;12.15;47.11;100485.22;4881997;28;98448;-70
2023/09/01 04:13:25;;;;;;;;;;;;;;;12.14;47.05;100491.69;4873116;28;98009;-70
2023/09/01 04:15:52;;;;;;;;;;;;;;;12.13;47.08;100487.38;4886550;28;99244;-71
2023/09/01 04:18:19;;;;;;;;;;;;;;;12.10;46.99;100494.13;4856639;28;98311;-70
2023/09/01 04:20:49;;;;;;;;;;;;;;;12.09;47.19;100484.44;4864387;28;98351;-71
2023/09/01 04:23:15;;;;;;;;;;;;;;;12.09;47.09;100489.03;4872472;28;98259;-70
2023/09/01 04:25:45;;;;;;;;;;;;;;;12.06;47.01;100490.38;4857574;28;98323;-71
2023/09/01 04:28:12;;;;;;;;;;;;;;;12.10;47.18;100482.53;4869240;28;98135;-71
2023/09/01 04:30:38;;;;;;;;;;;;;;;12.11;47.00;100481.47;4867497;28;100112;-69
2023/09/01 04:33:07;;;;;;;;;;;;;;;12.13;47.03;100485.47;4866696;28;97906;-70
2023/09/01 04:35:34;;;;;;;;;;;;;;;12.17;47.10;100483.84;4841651;28;98254;-69
2023/09/01 04:38:00;;;;;;;;;;;;;;;12.27;47.12;100477.59;4848800;28;98283;-69
2023/09/01 04:40:28;;;;;;;;;;;;;;;12.36;47.04;100480.53;4862693;28;99714;-69
2023/09/01 04:42:55;;;;;;;;;;;;;;;12.47;46.94;100482.09;4839199;28;99366;-70
2023/09/01 04:45:22;;;;;;;;;;;;;;;12.57;46.79;100476.59;4859606;28;98164;-71
2023/09/01 04:47:50;;;;;;;;;;;;;;;12.68;47.13;100485.47;4849291;28;98148;-71
2023/09/01 04:50:16;;;;;;;;;;;;;;;12.75;46.90;100484.06;4863040;28;98341;-70
2023/09/01 04:52:42;;;;;;;;;;;;;;;12.83;46.73;100479.94;4862028;28;98831;-71
2023/09/01 04:55:09;;;;;;;;;;;;;;;12.93;46.72;100479.88;4883619;28;98711;-70
2023/09/01 04:57:39;;;;;;;;;;;;;;;13.03;46.84;100487.91;4859812;28;98617;-71
2023/09/01 05:00:15;;;;;;;;;;;;;;;13.13;47.14;100488.94;4882132;28;99535;-69
2023/09/01 05:02:46;;;;;;;;;;;;;;;13.21;46.84;100491.03;4864163;28;97919;-70
2023/09/01 05:05:12;;;;;;;;;;;;;;;13.29;46.95;100489.63;4863823;28;99190;-69
2023/09/01 05:07:39;;;;;;;;;;;;;;;13.37;46.54;100487.13;4848627;28;98478;-71
2023/09/01 05:10:06;;;;;;;;;;;;;;;13.45;46.76;100493.81;4858955;28;98602;-69
2023/09/01 05:12:34;;;;;;;;;;;;;;;13.54;46.46;100492.09;4863229;28;98271;-69
2023/09/01 05:15:02;;;;;;;;;;;;;;;13.63;46.59;100489.56;4844130;28;98295;-70
2023/09/01 05:17:29;;;;;;;;;;;;;;;13.72;46.57;100493.28;4868290;28;98011;-71
2023/09/01 05:19:57;;;;;;;;;;;;;;;13.80;46.91;100499.97;4870844;28;98220;-72
2023/09/01 05:22:26;;;;;;;;;;;;;;;13.88;46.60;100500.13;4877342;28;99191;-69
2023/09/01 05:24:53;;;;;;;;;;;;;;;13.95;46.70;100499.75;4883698;28;99450;-71
2023/09/01 05:27:19;;;;;;;;;;;;;;;14.02;46.53;100497.53;4881173;28;98688;-69
2023/09/01 05:29:49;;;;;;;;;;;;;;;14.06;46.47;100495.84;4853022;28;99640;-72
2023/09/01 05:32:15;;;;;;;;;;;;;;;14.10;46.34;100499.59;4871286;28;98247;-70
2023/09/01 05:34:42;;;;;;;;;;;;;;;14.14;46.70;100497.91;4870669;28;98207;-71
2023/09/01 05:37:11;;;;;;;;;;;;;;;14.20;46.22;100498.66;4882788;28;98122;-69
2023/09/01 05:39:38;;;;;;;;;;;;;;;14.26;46.35;100511.06;4855605;28;98149;-71
2023/09/01 05:42:04;;;;;;;;;;;;;;;14.30;46.55;100503.16;4866223;28;98407;-69
2023/09/01 05:44:31;;;;;;;;;;;;;;;14.36;46.34;100508.22;4863592;28;98184;-70
2023/09/01 05:46:58;;;;;;;;;;;;;;;14.41;46.22;100502.72;4868906;28;100970;-72
2023/09/01 05:49:24;;;;;;;;;;;;;;;14.45;46.62;100501.03;4901450;28;98337;-70
2023/09/01 05:51:52;;;;;;;;;;;;;;;14.51;46.33;100507.25;4867568;28;98221;-71
2023/09/01 05:54:19;;;;;;;;;;;;;;;14.58;46.18;100515.00;4867829;28;98443;-70
2023/09/01 05:56:47;;;;;;;;;;;;;;;14.65;46.35;100520.88;4886686;28;98525;-70
2023/09/01 05:59:14;;;;;;;;;;;;;;;14.69;46.18;100517.28;4868812;28;98534;-70
2023/09/01 06:01:41;;;;;;;;;;;;;;;14.77;46.25;100512.28;4854400;28;98507;-70
2023/09/01 06:04:08;;;;;;;;;;;;;;;14.84;46.15;100516.25;4862530;28;99048;-71
2023/09/01 06:06:35;;;;;;;;;;;;;;;14.93;46.08;100516.38;4864085;28;98397;-71
2023/09/01 06:09:04;;;;;;;;;;;;;;;15.00;46.35;100516.81;4862951;28;97966;-71
2023/09/01 06:11:31;;;;;;;;;;;;;;;15.07;46.30;100525.41;4883426;28;98240;-70
2023/09/01 06:13:57;;;;;;;;;;;;;;;15.15;46.11;100518.50;4869664;28;98441;-71
2023/09/01 06:16:25;;;;;;;;;;;;;;;15.28;46.16;100515.00;4875994;28;98203;-69
2023/09/01 06:18:52;;;;;;;;;;;;;;;15.43;45.63;100517.47;4884039;28;99236;-69
2023/09/01 06:21:18;;;;;;;;;;;;;;;15.61;45.91;100525.88;4883963;28;98470;-71
2023/09/01 06:23:45;;;;;;;;;;;;;;;15.78;45.65;100534.25;4876418;28;100209;-71
2023/09/01 06:26:14;;;;;;;;;;;;;;;15.97;45.50;100533.38;4890588;28;98106;-71
2023/09/01 06:28:41;;;;;;;;;;;;;;;16.24;45.29;100527.13;4879618;28;100302;-71
2023/09/01 06:31:09;;;;;;;;;;;;;;;16.40;45.27;100531.16;4875248;28;99913;-70
2023/09/01 06:33:36;;;;;;;;;;;;;;;16.39;45.59;100541.22;4891041;28;98372;-71
2023/09/01 06:36:02;;;;;;;;;;;;;;;16.44;45.48;100546.56;4908080;28;98161;-71
2023/09/01 06:38:29;;;;;;;;;;;;;;;16.65;45.48;100543.38;4884625;28;98051;-69
2023/09/01 06:40:55;;;;;;;;;;;;;;;16.95;45.42;100544.66;4871716;28;98380;-72
2023/09/01 06:43:21;;;;;;;;;;;;;;;18.43;43.97;100539.97;4887966;28;97994;-72
2023/09/01 06:45:48;;;;;;;;;;;;;;;22.97;39.34;100530.69;4882041;28;98080;-72
2023/09/01 06:48:14;;;;;;;;;;;;;;;26.81;36.86;100539.13;4865472;28;99497;-67
2023/09/01 06:50:42;;;;;;;;;;;;;;;29.67;35.72;100577.28;4882941;28;98464;-70
2023/09/01 06:53:08;;;;;;;;;;;;;;;28.24;37.69;100590.41;4879497;28;98632;-67
2023/09/01 06:55:35;;;;;;;;;;;;;;;27.07;39.69;100581.69;4873089;28;99065;-70
2023/09/01 06:58:01;;;;;;;;;;;;;;;26.65;40.19;100577.22;4885093;28;98099;-70
2023/09/01 07:00:27;;;;;;;;;;;;;;;25.89;41.18;100577.16;4859138;28;98894;-68
2023/09/01 07:02:54;;;;;;;;;;;;;;;26.09;40.84;100569.59;4868345;28;98254;-70
2023/09/01 07:05:21;;;;;;;;;;;;;;;25.11;42.03;100568.19;4886074;28;98386;-70
2023/09/01 07:07:49;;;;;;;;;;;;;;;25.18;41.88;100562.81;4881378;28;98510;-70
2023/09/01 07:10:16;;;;;;;;;;;;;;;25.41;41.63;100562.88;4872429;28;98104;-68
2023/09/01 07:12:43;;;;;;;;;;;;;;;25.31;41.99;100563.47;4876922;28;98476;-68
2023/09/01 07:15:10;;;;;;;;;;;;;;;25.31;41.71;100555.19;4868196;28;98067;-70
2023/09/01 07:17:36;;;;;;;;;;;;;;;24.53;42.78;100562.63;4870016;28;98236;-69
2023/09/01 07:20:04;;;;;;;;;;;;;;;23.95;43.31;100565.94;4878497;28;100373;-68
2023/09/01 07:22:30;;;;;;;;;;;;;;;23.46;43.43;100566.19;4870197;28;98179;-68
2023/09/01 07:24:57;;;;;;;;;;;;;;;23.10;43.75;100556.16;4860614;28;98239;-70
2023/09/01 07:27:24;;;;;;;;;;;;;;;22.80;44.30;100559.22;4849862;28;98324;-70
2023/09/01 07:29:51;;;;;;;;;;;;;;;22.54;44.45;100557.66;4859821;28;99420;-70
2023/09/01 07:32:18;;;;;;;;;;;;;;;22.41;44.30;100561.56;4862143;28;99433;-69
2023/09/01 07:34:47;;;;;;;;;;;;;;;22.30;44.45;100558.50;4835567;28;98906;-68
2023/09/01 07:37:14;;;;;;;;;;;;;;;22.21;44.50;100557.81;4862567;28;98022;-69
2023/09/01 07:39:41;;;;;;;;;;;;;;;22.19;44.26;100562.03;4875572;28;98310;-71
2023/09/01 07:42:12;;;;;;;;;;;;;;;22.18;44.32;100574.16;4869623;28;98421;-71
2023/09/01 07:44:39;;;;;;;;;;;;;;;22.12;44.20;100570.81;4871196;28;98429;-71
2023/09/01 07:47:06;;;;;;;;;;;;;;;22.12;44.30;100575.50;4867039;28;98570;-71
2023/09/01 07:49:32;;;;;;;;;;;;;;;22.16;44.41;100579.19;4850135;28;100123;-69
2023/09/01 07:51:59;;;;;;;;;;;;;;;22.19;44.30;100565.59;4853974;28;98128;-71
2023/09/01 07:54:25;;;;;;;;;;;;;;;22.33;44.02;100573.47;4870505;28;98483;-69
2023/09/01 07:56:52;;;;;;;;;;;;;;;22.54;43.90;100576.09;4858731;28;98331;-71
2023/09/01 07:59:18;;;;;;;;;;;;;;;22.81;43.30;100565.50;4869098;28;99757;-69
2023/09/01 08:01:45;;;;;;;;;;;;;;;23.15;43.04;100569.69;4872598;28;98301;-69
2023/09/01 08:04:12;;;;;;;;;;;;;;;23.73;42.61;100559.06;4854144;28;98117;-70
2023/09/01 08:06:38;;;;;;;;;;;;;;;24.45;41.82;100553.41;4856967;28;98421;-71
2023/09/01 08:09:04;;;;;;;;;;;;;;;25.25;41.18;100559.44;4850677;28;99312;-71
2023/09/01 08:11:33;;;;;;;;;;;;;;;26.08;40.52;100559.75;4867936;28;101303;-69
2023/09/01 08:13:59;;;;;;;;;;;;;;;26.91;40.20;100554.22;4858726;28;98166;-72
2023/09/01 08:16:26;;;;;;;;;;;;;;;27.71;40.01;100553.97;4873100;28;98162;-72
2023/09/01 08:18:53;;;;;;;;;;;;;;;28.50;39.23;100556.19;4854944;28;98413;-72
2023/09/01 08:21:20;;;;;;;;;;;;;;;29.14;39.05;100566.81;4866458;28;97983;-70
2023/09/01 08:23:49;;;;;;;;;;;;;;;29.78;39.15;100561.41;4869688;28;98708;-69
2023/09/01 08:26:15;;;;;;;;;;;;;;;30.53;38.51;100566.91;4886198;28;98366;-69
2023/09/01 08:28:41;;;;;;;;;;;;;;;31.24;38.28;100563.13;4878223;28;98127;-72
2023/09/01 08:31:09;;;;;;;;;;;;;;;31.85;38.11;100561.97;4873286;28;98781;-69
2023/09/01 08:33:36;;;;;;;;;;;;;;;32.72;37.43;100552.34;4874715;28;98270;-70
2023/09/01 08:36:05;;;;;;;;;;;;;;;33.17;37.57;100553.00;4871243;28;98496;-72
2023/09/01 08:38:31;;;;;;;;;;;;;;;33.57;37.42;100553.25;4868406;28;98272;-70
2023/09/01 08:41:02;;;;;;;;;;;;;;;34.26;37.35;100552.91;4884904;28;99998;-69
2023/09/01 08:43:40;;;;;;;;;;;;;;;34.83;37.20;100557.41;4866036;28;98214;-73
2023/09/01 08:46:07;;;;;;;;;;;;;;;35.30;36.60;100552.41;4872766;28;98627;-69
2023/09/01 08:48:33;;;;;;;;;;;;;;;35.46;37.34;100553.66;4853819;28;98364;-69
2023/09/01 08:51:00;;;;;;;;;;;;;;;35.89;37.08;100547.81;4885249;28;99127;-69
2023/09/01 08:53:26;;;;;;;;;;;;;;;36.27;36.66;100548.03;4884401;28;101896;-70
2023/09/01 08:55:55;;;;;;;;;;;;;;;36.72;36.71;100538.00;4865125;28;100089;-73
2023/09/01 08:58:23;;;;;;;;;;;;;;;36.72;37.01;100538.00;4876792;28;107302;-73
2023/09/01 09:00:49;;;;;;;;;;;;;;;37.31;36.73;100537.44;4866330;28;99273;-69
2023/09/01 09:03:19;;;;;;;;;;;;;;;37.86;36.42;100540.06;4882403;28;98056;-74
2023/09/01 09:05:46;;;;;;;;;;;;;;;38.07;36.17;100530.91;4872983;28;99902;-74
2023/09/01 09:08:12;;;;;;;;;;;;;;;38.40;36.32;100538.22;4887810;28;98653;-74
2023/09/01 09:10:40;;;;;;;;;;;;;;;38.62;35.78;100532.63;4883892;28;98487;-69
2023/09/01 09:13:26;;;;;;;;;;;;;;;38.79;36.05;100534.81;4869164;28;98861;-74
2023/09/01 09:16:06;;;;;;;;;;;;;;;39.08;35.83;100528.06;4891044;28;98248;-69
2023/09/01 09:18:33;;;;;;;;;;;;;;;39.36;35.92;100519.72;4888628;28;98355;-69
2023/09/01 09:20:59;;;;;;;;;;;;;;;39.05;36.22;100520.53;4892553;28;99251;-70
2023/09/01 09:23:43;;;;;;;;;;;;;;;38.32;36.76;100515.19;4870420;28;98109;-74
2023/09/01 09:26:10;;;;;;;;;;;;;;;37.84;37.32;100517.25;4863709;28;100751;-70
2023/09/01 09:28:37;;;;;;;;;;;;;;;36.60;38.78;100515.06;4863297;28;98198;-70
2023/09/01 09:31:03;;;;;;;;;;;;;;;37.56;37.36;100522.59;4882021;28;98227;-70
2023/09/01 09:33:31;;;;;;;;;;;;;;;38.18;36.54;100518.50;4867096;28;99713;-74
2023/09/01 09:35:58;;;;;;;;;;;;;;;37.45;37.86;100512.94;4882573;28;99331;-69
2023/09/01 09:38:37;;;;;;;;;;;;;;;37.99;37.21;100520.38;4870934;28;98365;-74
2023/09/01 09:41:04;;;;;;;;;;;;;;;35.65;39.57;100517.19;4884545;28;98636;-69
2023/09/01 09:43:46;;;;;;;;;;;;;;;36.52;38.31;100515.72;4869087;28;98710;-75
2023/09/01 09:46:14;;;;;;;;;;;;;;;38.31;36.14;100522.03;4870762;28;98465;-69
2023/09/01 09:48:40;;;;;;;;;;;;;;;37.97;37.13;100523.66;4866899;28;99550;-69
2023/09/01 09:51:10;;;;;;;;;;;;;;;38.75;36.38;100527.69;4870809;28;98651;-74
2023/09/01 09:53:38;;;;;;;;;;;;;;;38.74;36.66;100524.09;4872197;28;98077;-69
2023/09/01 09:56:32;;;;;;;;;;;;;;;39.20;35.71;100527.16;4873567;28;98132;-70
2023/09/01 09:59:03;;;;;;;;;;;;;;;39.52;35.74;100522.28;4899573;28;98085;-70
2023/09/01 10:01:31;;;;;;;;;;;;;;;38.93;36.53;100518.59;4909509;28;98076;-70
2023/09/01 10:03:58;;;;;;;;;;;;;;;38.76;36.99;100523.63;4868166;28;98022;-74
2023/09/01 10:06:25;;;;;;;;;;;;;;;39.44;36.25;100516.16;4901188;28;99910;-70
2023/09/01 10:08:52;;;;;;;;;;;;;;;39.82;35.88;100505.75;4873173;28;98429;-74
2023/09/01 10:11:20;;;;;;;;;;;;;;;39.31;36.29;100509.84;4867995;28;97881;-70
2023/09/01 10:13:46;;;;;;;;;;;;;;;39.57;36.22;100512.41;4852070;28;98043;-73
2023/09/01 10:16:14;;;;;;;;;;;;;;;40.20;35.75;100517.38;4885650;28;98411;-69
2023/09/01 10:18:46;;;;;;;;;;;;;;;40.31;35.84;100497.16;4870627;28;98229;-69
2023/09/01 10:21:13;;;;;;;;;;;;;;;39.72;36.37;100500.09;4869460;28;99325;-69
2023/09/01 10:23:40;;;;;;;;;;;;;;;38.80;37.24;100498.97;4866215;28;98657;-69
2023/09/01 10:26:15;;;;;;;;;;;;;;;39.83;36.32;100507.31;4869801;28;98376;-74
2023/09/01 10:29:00;;;;;;;;;;;;;;;40.44;35.75;100508.25;4885571;28;98237;-74
2023/09/01 10:31:30;;;;;;;;;;;;;;;40.97;35.11;100490.88;4885074;28;98443;-73
2023/09/01 10:34:26;;;;;;;;;;;;;;;41.22;35.11;100496.13;4879633;28;98163;-73
2023/09/01 10:37:27;;;;;;;;;;;;;;;41.18;35.39;100489.06;4865289;28;98483;-69
2023/09/01 10:39:54;;;;;;;;;;;;;;;40.86;35.90;100488.56;4882360;28;98375;-73
2023/09/01 10:42:48;;;;;;;;;;;;;;;40.87;35.79;100483.69;4882171;28;98203;-73
2023/09/01 10:45:16;;;;;;;;;;;;;;;41.00;35.70;100480.72;4861813;28;99665;-69
2023/09/01 10:47:43;;;;;;;;;;;;;;;41.32;35.41;100481.94;4865254;28;98256;-69
2023/09/01 10:50:12;;;;;;;;;;;;;;;41.12;35.47;100477.66;4883937;28;99572;-68
2023/09/01 10:52:39;;;;;;;;;;;;;;;40.89;35.58;100484.00;4878390;28;98198;-73
2023/09/01 10:55:06;;;;;;;;;;;;;;;37.65;39.06;100474.13;4865480;28;98325;-69
2023/09/01 10:57:44;;;;;;;;;;;;;;;36.72;39.80;100482.66;4879851;28;99614;-72
2023/09/01 11:00:26;;;;;;;;;;;;;;;38.86;36.95;100488.66;4903790;28;99176;-73
2023/09/01 11:02:52;;;;;;;;;;;;;;;39.51;36.16;100473.56;4881571;28;97959;-72
2023/09/01 11:05:55;;;;;;;;;;;;;;;39.67;36.00;100483.81;4882214;28;99635;-68
2023/09/01 11:08:22;;;;;;;;;;;;;;;39.73;36.24;100487.59;4860349;28;98393;-72
2023/09/01 11:10:48;;;;;;;;;;;;;;;38.85;37.07;100481.47;4870237;28;98219;-72
2023/09/01 11:13:18;;;;;;;;;;;;;;;38.29;37.45;100491.56;4865413;28;98113;-72
2023/09/01 11:15:50;;;;;;;;;;;;;;;37.87;37.70;100488.25;4869141;28;98288;-69
2023/09/01 11:18:23;;;;;;;;;;;;;;;37.64;37.76;100475.34;4883254;28;97970;-68
2023/09/01 11:20:57;;;;;;;;;;;;;;;37.30;38.48;100481.69;4872545;28;97986;-72
2023/09/01 11:23:24;;;;;;;;;;;;;;;36.63;38.58;100479.72;4847430;28;99185;-68
2023/09/01 11:26:00;;;;;;;;;;;;;;;36.78;38.44;100483.66;4885546;28;98226;-68
2023/09/01 11:28:27;;;;;;;;;;;;;;;37.48;37.15;100483.94;4864391;28;98215;-69
2023/09/01 11:30:57;;;;;;;;;;;;;;;35.05;39.85;100479.38;4882102;28;98335;-72
2023/09/01 11:33:24;;;;;;;;;;;;;;;34.17;40.62;100469.59;4878773;28;98480;-71
2023/09/01 11:36:04;;;;;;;;;;;;;;;35.44;38.54;100474.84;4847199;28;99308;-72
2023/09/01 11:38:30;;;;;;;;;;;;;;;35.47;38.74;100468.38;4849443;28;99388;-68
2023/09/01 11:40:57;;;;;;;;;;;;;;;36.10;37.93;100470.78;4866779;28;97997;-69
2023/09/01 11:43:23;;;;;;;;;;;;;;;35.97;37.91;100469.94;4882139;28;98471;-68
2023/09/01 11:45:50;;;;;;;;;;;;;;;36.19;37.87;100473.72;4866576;28;99692;-72
2023/09/01 11:48:27;;;;;;;;;;;;;;;36.32;37.86;100471.78;4862401;28;98177;-71
2023/09/01 11:50:54;;;;;;;;;;;;;;;34.50;39.59;100464.16;4864834;28;98096;-71
2023/09/01 11:53:32;;;;;;;;;;;;;;;33.30;40.77;100461.06;4869405;28;99285;-68
2023/09/01 11:56:01;;;;;;;;;;;;;;;34.00;39.43;100470.72;4868639;28;98210;-68
2023/09/01 11:58:33;;;;;;;;;;;;;;;34.26;39.21;100477.41;4868877;28;98247;-72
2023/09/01 12:01:09;;;;;;;;;;;;;;;34.72;38.74;100476.47;4867376;28;99238;-68
2023/09/01 12:03:37;;;;;;;;;;;;;;;35.06;38.37;100475.38;4880452;28;98069;-73
2023/09/01 12:06:13;;;;;;;;;;;;;;;35.38;38.34;100477.41;4863366;28;98240;-69
2023/09/01 12:08:40;;;;;;;;;;;;;;;35.65;38.06;100477.16;4876016;28;98470;-69
2023/09/01 12:11:07;;;;;;;;;;;;;;;35.81;38.01;100474.34;4880084;28;98000;-69
2023/09/01 12:13:34;;;;;;;;;;;;;;;36.00;37.96;100480.25;4884711;28;98522;-72
2023/09/01 12:16:02;;;;;;;;;;;;;;;35.07;38.61;100468.53;4880287;28;98542;-68
2023/09/01 12:18:40;;;;;;;;;;;;;;;35.21;38.63;100473.00;4835755;28;97992;-68
2023/09/01 12:21:11;;;;;;;;;;;;;;;34.79;39.08;100467.94;4860530;28;97847;-68
2023/09/01 12:23:38;;;;;;;;;;;;;;;34.89;38.72;100466.09;4850368;28;99657;-69
2023/09/01 12:26:06;;;;;;;;;;;;;;;35.06;38.41;100464.19;4850674;28;98658;-72
2023/09/01 12:28:34;;;;;;;;;;;;;;;35.23;38.58;100464.97;4850193;28;98310;-72
2023/09/01 12:31:02;;;;;;;;;;;;;;;34.74;39.01;100465.63;4836469;28;98187;-72
2023/09/01 12:33:29;;;;;;;;;;;;;;;34.02;39.47;100462.69;4832290;28;98496;-68
2023/09/01 12:35:56;;;;;;;;;;;;;;;34.40;38.91;100454.75;4851793;28;98108;-71
2023/09/01 12:38:22;;;;;;;;;;;;;;;34.59;39.06;100453.97;4854796;28;98865;-69
2023/09/01 12:40:49;;;;;;;;;;;;;;;34.38;38.89;100463.56;4850040;28;98381;-69
2023/09/01 12:43:16;;;;;;;;;;;;;;;33.94;39.23;100453.63;4851412;28;98056;-68